Aviation Digital Data Service (ADDS)

Output produced by METARs form (2359 UTC 23 May 2022)
found at http://www.aviationweather.gov/metar/data/
 
GOGS 232300Z 32006KT CAVOK 23/20 Q1012
TAF GOGS 232300Z 2400/2424 32008KT 9999 SCT013
       
GOOK 232300Z 36006KT CAVOK 24/19 Q1013
GOTK 232200Z 28008KT 9999 BKN013 36/15 Q1009
GOOY 232300Z 32012KT 9999 BKN010 22/18 Q1014
TAF GOOY 232300Z 2400/2506 34012KT 9999 SCT010 
     TEMPO 2400/2406 BKN010
       
GOSS 232300Z 34006KT 9999 OVC010 22/18 Q1014
TAF GOSS 232300Z 2400/2424 32010KT BKN010 
     BECMG 2410/2412 SCT010
       
GOTT 232100Z 20002KT CAVOK 35/11 Q1010
GOGG 232300Z 28010KT CAVOK 23/20 Q1014